Time;durP1;ratioP1;P1;durP2;ratioP2;P2;SDS_P1;SDS_P2;PMS_P1;PMS_P2;Temp;Humidity;BMP_temperature;BMP_pressure;BME280_temperature;BME280_humidity;BME280_pressure;Samples;Min_cycle;Max_cycle;Signal;HPM_P1;HPM_P2
2021/06/25 00:01:38;;;;;;;8.57;5.85;;;;;;;14.60;71.11;100576.13;5025259;28;20051;-67
2021/06/25 00:04:04;;;;;;;11.98;6.72;;;;;;;14.62;70.90;100573.47;5025386;28;20018;-67
2021/06/25 00:06:30;;;;;;;10.63;6.28;;;;;;;14.62;70.86;100569.13;5026729;28;20033;-67
2021/06/25 00:08:55;;;;;;;13.98;6.32;;;;;;;14.60;70.79;100573.53;5008988;28;20022;-67
2021/06/25 00:11:20;;;;;;;9.23;6.50;;;;;;;14.59;70.88;100561.34;5026719;28;20053;-66
2021/06/25 00:13:46;;;;;;;11.80;6.60;;;;;;;14.60;70.87;100560.47;5008636;28;20033;-67
2021/06/25 00:16:11;;;;;;;15.65;6.78;;;;;;;14.61;70.76;100562.19;5008727;28;20044;-67
2021/06/25 00:18:36;;;;;;;9.02;5.78;;;;;;;14.65;70.85;100560.34;5026186;28;20096;-67
2021/06/25 00:21:02;;;;;;;11.27;6.40;;;;;;;14.66;70.75;100553.38;5026401;28;20067;-66
2021/06/25 00:23:28;;;;;;;9.23;5.82;;;;;;;14.68;70.80;100557.66;5026030;28;20029;-67
2021/06/25 00:25:53;;;;;;;11.02;6.47;;;;;;;14.72;70.76;100569.78;5026218;28;20025;-66
2021/06/25 00:28:19;;;;;;;11.07;6.03;;;;;;;14.67;70.44;100555.09;5026416;28;20018;-67
2021/06/25 00:30:44;;;;;;;9.35;5.88;;;;;;;14.70;70.29;100555.00;5026242;28;20409;-67
2021/06/25 00:33:10;;;;;;;13.07;7.03;;;;;;;14.70;70.09;100565.47;5025911;28;20038;-66
2021/06/25 00:35:37;;;;;;;10.57;5.80;;;;;;;14.60;70.07;100554.41;5025991;28;20022;-66
2021/06/25 00:38:03;;;;;;;7.45;5.57;;;;;;;14.59;70.09;100563.97;5007901;28;20026;-67
2021/06/25 00:40:29;;;;;;;11.38;5.80;;;;;;;14.53;70.08;100561.50;5025948;28;20028;-67
2021/06/25 00:42:54;;;;;;;9.50;5.43;;;;;;;14.48;70.26;100547.69;5024564;28;20045;-67
2021/06/25 00:45:20;;;;;;;9.05;5.65;;;;;;;14.45;70.09;100543.38;5024704;28;20048;-68
2021/06/25 00:47:48;;;;;;;9.55;5.22;;;;;;;14.48;70.05;100551.16;5025714;28;20036;-68
2021/06/25 00:50:17;;;;;;;9.32;5.55;;;;;;;14.44;69.96;100541.66;5025995;28;20017;-68
2021/06/25 00:52:43;;;;;;;7.82;5.47;;;;;;;14.48;70.03;100545.94;5025696;28;20026;-68
2021/06/25 00:55:10;;;;;;;8.95;5.50;;;;;;;14.41;69.84;100535.66;5024414;28;20018;-68
2021/06/25 00:57:35;;;;;;;10.20;5.60;;;;;;;14.48;69.99;100545.94;5025776;28;20021;-68
2021/06/25 01:00:04;;;;;;;10.70;6.03;;;;;;;14.53;69.78;100544.97;5025578;28;20053;-69
2021/06/25 01:02:29;;;;;;;8.38;5.05;;;;;;;14.53;69.73;100540.59;5025396;28;20048;-69
2021/06/25 01:04:55;;;;;;;10.55;5.75;;;;;;;14.57;69.60;100542.25;5025503;28;20025;-70
2021/06/25 01:07:20;;;;;;;8.93;5.57;;;;;;;14.59;69.50;100545.69;5025463;28;20032;-70
2021/06/25 01:09:46;;;;;;;11.23;5.45;;;;;;;14.57;69.68;100544.84;5025458;28;20032;-69
2021/06/25 01:12:12;;;;;;;8.50;5.53;;;;;;;14.54;69.47;100536.22;5025191;28;20486;-69
2021/06/25 01:14:39;;;;;;;7.25;5.45;;;;;;;14.60;69.39;100536.94;5025320;28;20022;-70
2021/06/25 01:17:06;;;;;;;7.25;5.03;;;;;;;14.63;69.47;100536.88;5007635;28;20018;-69
2021/06/25 01:19:32;;;;;;;9.05;5.35;;;;;;;14.62;69.48;100532.56;5024122;28;20036;-69
2021/06/25 01:21:58;;;;;;;10.57;6.20;;;;;;;14.59;69.43;100535.22;5007324;28;20026;-70
2021/06/25 01:24:24;;;;;;;8.75;5.35;;;;;;;14.56;69.32;100526.59;5025365;28;20072;-70
2021/06/25 01:26:50;;;;;;;10.98;5.70;;;;;;;14.49;69.53;100528.50;5007733;28;20057;-70
2021/06/25 01:29:18;;;;;;;10.00;5.78;;;;;;;14.42;69.73;100524.31;5023735;28;20029;-70
2021/06/25 01:31:44;;;;;;;10.15;6.00;;;;;;;14.38;69.57;100524.38;5024964;28;20394;-69
2021/06/25 01:34:09;;;;;;;10.00;5.55;;;;;;;14.31;69.70;100522.81;5025080;28;20204;-69
2021/06/25 01:36:37;;;;;;;7.22;5.32;;;;;;;14.23;70.18;100530.78;5023920;28;20033;-70
2021/06/25 01:39:05;;;;;;;10.27;5.22;;;;;;;14.15;70.51;100531.84;5024770;28;20030;-69
2021/06/25 01:41:31;;;;;;;11.77;6.28;;;;;;;14.12;70.44;100533.63;5024932;28;20028;-70
2021/06/25 01:43:57;;;;;;;12.25;6.13;;;;;;;14.09;70.49;100525.03;5024836;28;20018;-69
2021/06/25 01:46:23;;;;;;;12.15;6.40;;;;;;;14.07;70.34;100518.97;5024728;28;20026;-69
2021/06/25 01:48:48;;;;;;;9.95;6.55;;;;;;;13.98;70.38;100517.41;5024517;28;20037;-69
2021/06/25 01:51:16;;;;;;;13.30;6.88;;;;;;;13.91;70.68;100519.31;5024015;28;20029;-69
2021/06/25 01:53:41;;;;;;;10.55;6.25;;;;;;;13.88;70.63;100525.41;5006919;28;20028;-69
2021/06/25 01:56:07;;;;;;;10.68;6.70;;;;;;;13.81;70.95;100518.63;5024656;28;20022;-69
2021/06/25 01:58:32;;;;;;;12.82;6.82;;;;;;;13.76;71.10;100515.25;5024215;28;20593;-69
2021/06/25 02:01:11;;;;;;;16.40;6.95;;;;;;;13.72;71.21;100511.81;5024419;28;20021;-68
2021/06/25 02:03:40;;;;;;;13.27;6.22;;;;;;;13.63;71.63;100510.28;5024312;28;20032;-70
2021/06/25 02:06:07;;;;;;;9.20;5.97;;;;;;;13.60;71.87;100515.53;5024540;28;20020;-69
2021/06/25 02:08:33;;;;;;;11.27;6.90;;;;;;;13.55;72.03;100512.16;5024291;28;20029;-70
2021/06/25 02:10:59;;;;;;;11.60;5.63;;;;;;;13.54;71.97;100514.78;5006444;28;20109;-70
2021/06/25 02:13:25;;;;;;;11.23;6.53;;;;;;;13.50;72.25;100506.13;5006009;28;20033;-68
2021/06/25 02:15:51;;;;;;;8.70;5.90;;;;;;;13.44;72.46;100511.47;5024393;28;20033;-69
2021/06/25 02:18:17;;;;;;;9.95;5.68;;;;;;;13.42;72.60;100514.09;5022825;28;20018;-69
2021/06/25 02:20:43;;;;;;;8.65;6.07;;;;;;;13.41;72.51;100504.56;5006605;28;20040;-70
2021/06/25 02:23:08;;;;;;;10.57;6.45;;;;;;;13.42;72.50;100515.88;5024061;28;20025;-69
2021/06/25 02:25:34;;;;;;;9.20;5.55;;;;;;;13.41;72.42;100524.56;5024168;28;20081;-70
2021/06/25 02:27:59;;;;;;;9.45;5.32;;;;;;;13.38;72.42;100512.44;5023952;28;20057;-69
2021/06/25 02:30:25;;;;;;;9.32;5.82;;;;;;;13.42;72.55;100528.91;5024115;28;20030;-70
2021/06/25 02:32:50;;;;;;;7.07;5.32;;;;;;;13.41;72.51;100525.44;5023628;28;20029;-70
2021/06/25 02:35:16;;;;;;;7.65;5.50;;;;;;;13.44;72.51;100529.72;5023966;28;20037;-69
2021/06/25 02:37:42;;;;;;;10.02;5.68;;;;;;;13.46;72.50;100520.13;5023841;28;20113;-69
2021/06/25 02:40:08;;;;;;;9.93;5.25;;;;;;;13.44;72.42;100512.34;5023882;28;20036;-69
2021/06/25 02:42:34;;;;;;;8.55;5.32;;;;;;;13.47;72.49;100514.88;5023655;28;20037;-70
2021/06/25 02:45:02;;;;;;;7.53;5.10;;;;;;;13.48;72.45;100505.31;5023683;28;20026;-70
2021/06/25 02:47:27;;;;;;;11.27;5.82;;;;;;;13.55;72.23;100501.72;5023515;28;20026;-69
2021/06/25 02:49:52;;;;;;;11.40;5.88;;;;;;;13.59;72.12;100502.53;5024008;28;20045;-70
2021/06/25 02:52:18;;;;;;;7.53;5.50;;;;;;;13.56;72.17;100493.00;5022377;28;20109;-70
2021/06/25 02:54:43;;;;;;;10.68;5.50;;;;;;;13.60;71.98;100505.13;5023363;28;20053;-70
2021/06/25 02:57:09;;;;;;;8.35;5.60;;;;;;;13.62;71.92;100499.88;5023739;28;20037;-70
2021/06/25 02:59:34;;;;;;;12.10;5.85;;;;;;;13.67;71.92;100507.59;5023444;28;20049;-70
2021/06/25 03:02:00;;;;;;;10.25;5.38;;;;;;;13.67;71.55;100500.63;5023370;28;20053;-70
2021/06/25 03:04:25;;;;;;;9.32;4.93;;;;;;;13.63;71.69;100489.41;5023381;28;20422;-70
2021/06/25 03:06:50;;;;;;;12.35;5.57;;;;;;;13.68;71.70;100502.34;5023643;28;20032;-70
2021/06/25 03:09:16;;;;;;;8.35;5.28;;;;;;;13.68;71.67;100491.03;5023492;28;20022;-70
2021/06/25 03:11:41;;;;;;;10.15;5.75;;;;;;;13.74;71.55;100502.22;5023248;28;20022;-70
2021/06/25 03:14:07;;;;;;;10.00;5.80;;;;;;;13.78;71.62;100502.16;5021974;28;20025;-70
2021/06/25 03:16:32;;;;;;;10.57;5.28;;;;;;;13.85;71.90;100496.78;5022259;28;20085;-70
2021/06/25 03:18:58;;;;;;;9.00;4.93;;;;;;;14.04;72.08;100490.31;5023435;28;20026;-70
2021/06/25 03:21:23;;;;;;;11.10;5.50;;;;;;;14.31;71.96;100493.22;5022338;28;20399;-70
2021/06/25 03:23:48;;;;;;;9.02;5.10;;;;;;;14.74;71.95;100483.50;5023488;28;20021;-70
2021/06/25 03:26:14;;;;;;;5.95;4.50;;;;;;;15.36;71.52;100487.19;5023419;28;20081;-71
2021/06/25 03:28:40;;;;;;;5.72;4.15;;;;;;;16.06;70.53;100481.75;5023422;28;20105;-71
2021/06/25 03:31:05;;;;;;;4.72;3.88;;;;;;;16.92;69.15;100491.28;5023390;28;20018;-72
2021/06/25 03:33:30;;;;;;;6.95;3.78;;;;;;;17.64;66.47;100473.94;5023325;28;20026;-72
2021/06/25 03:35:56;;;;;;;6.85;3.80;;;;;;;18.37;64.45;100477.38;5023090;28;20041;-72
2021/06/25 03:38:21;;;;;;;4.55;3.47;;;;;;;18.90;62.29;100472.56;5023089;28;20034;-71
2021/06/25 03:40:47;;;;;;;7.60;4.20;;;;;;;19.34;60.60;100476.00;5023090;28;20171;-72
2021/06/25 03:43:12;;;;;;;4.88;3.65;;;;;;;19.85;58.49;100480.75;5023320;28;20088;-72
2021/06/25 03:45:37;;;;;;;6.45;3.55;;;;;;;20.46;57.13;100488.47;5021904;28;20020;-72
2021/06/25 03:48:04;;;;;;;4.78;3.30;;;;;;;20.84;54.84;100482.22;5023330;28;20053;-72
2021/06/25 03:50:29;;;;;;;6.78;3.28;;;;;;;21.08;53.01;100482.78;5023208;28;20033;-72
2021/06/25 03:52:55;;;;;;;4.28;3.05;;;;;;;21.33;52.28;100478.00;5023199;28;20018;-72
2021/06/25 03:55:21;;;;;;;5.95;3.20;;;;;;;21.34;51.23;100479.72;5022993;28;20026;-72
2021/06/25 03:57:46;;;;;;;4.15;3.65;;;;;;;20.89;50.94;100470.53;5023157;28;20133;-72
2021/06/25 04:00:15;;;;;;;5.50;3.40;;;;;;;20.49;51.22;100478.66;5023004;28;20042;-72
2021/06/25 04:02:41;;;;;;;5.03;3.65;;;;;;;20.19;51.39;100473.94;5022807;28;20129;-70
2021/06/25 04:05:09;;;;;;;6.15;3.53;;;;;;;20.08;51.96;100470.97;5022990;28;20022;-72
2021/06/25 04:07:35;;;;;;;4.85;3.45;;;;;;;19.93;52.06;100476.84;5023212;28;20049;-72
2021/06/25 04:10:02;;;;;;;5.13;3.60;;;;;;;19.89;51.90;100483.16;5023040;28;20018;-72
2021/06/25 04:12:27;;;;;;;4.70;3.53;;;;;;;19.89;51.56;100480.53;5022905;28;20080;-71
2021/06/25 04:14:53;;;;;;;5.63;3.22;;;;;;;19.96;52.09;100480.25;5025678;28;20030;-72
2021/06/25 04:17:19;;;;;;;4.82;3.65;;;;;;;20.04;51.78;100486.06;5026515;28;20445;-72
2021/06/25 04:19:44;;;;;;;6.32;3.55;;;;;;;20.13;51.37;100487.38;5026574;28;20022;-71
2021/06/25 04:22:10;;;;;;;6.03;3.60;;;;;;;20.35;51.07;100496.91;5026431;28;20034;-71
2021/06/25 04:24:35;;;;;;;5.40;3.38;;;;;;;20.59;50.68;100499.28;5026170;28;20100;-71
2021/06/25 04:27:00;;;;;;;5.72;3.38;;;;;;;20.74;49.89;100487.97;5026239;28;20048;-71
2021/06/25 04:29:26;;;;;;;7.38;3.10;;;;;;;20.95;49.73;100479.94;5026324;28;20028;-72
2021/06/25 04:31:54;;;;;;;8.48;3.42;;;;;;;20.85;48.75;100483.91;5025934;28;20037;-70
2021/06/25 04:34:21;;;;;;;6.47;4.30;;;;;;;20.55;48.98;100472.19;5026150;28;20538;-71
2021/06/25 04:36:47;;;;;;;6.50;4.57;;;;;;;20.29;49.41;100477.81;5026070;28;20022;-71
2021/06/25 04:39:13;;;;;;;5.60;3.40;;;;;;;19.99;50.55;100466.94;5026112;28;20110;-72
2021/06/25 04:41:38;;;;;;;6.50;3.50;;;;;;;20.15;50.70;100464.44;5026191;28;20022;-72
2021/06/25 04:44:04;;;;;;;5.25;3.65;;;;;;;20.73;50.02;100459.03;5025955;28;20128;-70
2021/06/25 04:46:31;;;;;;;6.60;4.00;;;;;;;21.46;48.96;100478.22;5026012;28;20025;-71
2021/06/25 04:48:56;;;;;;;5.30;3.90;;;;;;;22.05;47.76;100469.78;5025942;28;20052;-71
2021/06/25 04:51:21;;;;;;;6.53;3.30;;;;;;;22.88;46.27;100473.91;5025857;28;20487;-70
2021/06/25 04:53:47;;;;;;;6.78;3.72;;;;;;;23.62;43.95;100475.69;5025523;28;20021;-71
2021/06/25 04:56:12;;;;;;;7.85;3.97;;;;;;;24.30;43.10;100479.44;5025801;28;20022;-73
2021/06/25 04:58:38;;;;;;;4.45;3.20;;;;;;;24.68;41.66;100481.31;5025561;28;20018;-72
2021/06/25 05:01:03;;;;;;;6.82;3.25;;;;;;;24.98;40.59;100477.59;5025733;28;20112;-72
2021/06/25 05:03:29;;;;;;;5.60;3.88;;;;;;;24.94;39.75;100470.78;5024111;28;20029;-72
2021/06/25 05:05:55;;;;;;;4.68;3.70;;;;;;;24.73;40.24;100473.91;5025623;28;20048;-72
2021/06/25 05:08:20;;;;;;;6.50;3.67;;;;;;;24.31;40.57;100473.16;5025634;28;20033;-72
2021/06/25 05:10:46;;;;;;;7.95;3.67;;;;;;;24.22;40.98;100486.06;5025665;28;20021;-71
2021/06/25 05:13:13;;;;;;;5.22;3.75;;;;;;;23.72;40.41;100483.03;5025593;28;20029;-72
2021/06/25 05:15:38;;;;;;;6.38;3.40;;;;;;;23.23;41.62;100479.78;5025350;28;20014;-71
2021/06/25 05:18:19;;;;;;;6.45;3.40;;;;;;;23.18;41.48;100485.38;5025280;28;20033;-72
2021/06/25 05:20:45;;;;;;;7.25;3.90;;;;;;;22.83;41.50;100486.53;5024226;28;20022;-72
2021/06/25 05:23:12;;;;;;;4.88;3.55;;;;;;;22.36;41.60;100489.22;5025261;28;20327;-72
2021/06/25 05:25:39;;;;;;;8.55;3.67;;;;;;;21.68;42.25;100496.41;5024236;28;20042;-72
2021/06/25 05:28:05;;;;;;;6.88;3.72;;;;;;;21.19;43.22;100498.06;5025325;28;20030;-71
2021/06/25 05:30:31;;;;;;;6.00;3.40;;;;;;;21.02;43.73;100501.59;5025320;28;20030;-71
2021/06/25 05:32:58;;;;;;;7.68;3.63;;;;;;;21.51;43.91;100492.03;5024960;28;20542;-72
2021/06/25 05:35:30;;;;;;;5.60;3.20;;;;;;;22.25;43.00;100491.59;5024957;28;20029;-72
2021/06/25 05:37:56;;;;;;;4.82;2.90;;;;;;;23.44;40.80;100485.59;5025115;28;20060;-72
2021/06/25 05:40:21;;;;;;;5.55;3.35;;;;;;;24.53;38.74;100491.16;5025074;28;20030;-72
2021/06/25 05:42:46;;;;;;;7.68;3.08;;;;;;;25.15;37.63;100482.66;5025244;28;20022;-72
2021/06/25 05:45:12;;;;;;;7.13;3.25;;;;;;;25.16;36.71;100484.38;5024888;28;20071;-72
2021/06/25 05:47:38;;;;;;;4.95;3.67;;;;;;;24.70;36.53;100483.88;5024837;28;20028;-73
2021/06/25 05:50:03;;;;;;;7.78;3.83;;;;;;;24.08;37.73;100491.38;5024849;28;20026;-72
2021/06/25 05:52:29;;;;;;;6.50;4.10;;;;;;;23.41;38.85;100496.41;5024893;28;20490;-72
2021/06/25 05:54:54;;;;;;;6.13;3.70;;;;;;;22.84;39.71;100492.69;5024553;28;20056;-71
2021/06/25 05:57:19;;;;;;;9.00;4.35;;;;;;;22.22;41.02;100491.78;5024867;28;20521;-73
2021/06/25 05:59:45;;;;;;;5.40;3.50;;;;;;;21.71;42.62;100501.50;5024328;28;20041;-72
2021/06/25 06:02:10;;;;;;;6.30;3.60;;;;;;;21.41;43.00;100495.16;5024368;28;20057;-72
2021/06/25 06:04:35;;;;;;;5.03;3.55;;;;;;;21.15;43.65;100497.38;5024140;28;20020;-73
2021/06/25 06:07:01;;;;;;;5.95;4.05;;;;;;;20.99;44.02;100494.66;5024227;28;20101;-73
2021/06/25 06:09:27;;;;;;;7.40;3.45;;;;;;;21.03;44.14;100500.66;5024141;28;20045;-71
2021/06/25 06:11:52;;;;;;;5.03;3.53;;;;;;;21.09;43.76;100491.53;5022639;28;20471;-71
2021/06/25 06:14:17;;;;;;;6.03;3.78;;;;;;;20.91;44.27;100481.00;5023835;28;20539;-72
2021/06/25 06:16:43;;;;;;;5.05;3.40;;;;;;;20.69;44.23;100487.34;5024212;28;20040;-73
2021/06/25 06:19:08;;;;;;;4.85;3.55;;;;;;;20.43;45.03;100497.41;5023775;28;20034;-72
2021/06/25 06:33:04;;;;;;;3.92;3.03;;;;;;;22.21;42.71;100484.75;5001471;28;20061;-71
2021/06/25 06:35:29;;;;;;;5.78;3.20;;;;;;;22.82;41.55;100486.63;5001424;28;20030;-72
2021/06/25 06:38:01;;;;;;;5.75;3.58;;;;;;;22.90;40.56;100489.69;5001351;28;20113;-71
2021/06/25 06:40:27;;;;;;;4.85;2.60;;;;;;;22.59;41.17;100484.41;5001525;28;20061;-71
2021/06/25 06:42:52;;;;;;;4.35;3.17;;;;;;;22.26;41.27;100490.66;5001506;28;20026;-70
2021/06/25 06:45:17;;;;;;;5.03;3.80;;;;;;;21.92;41.77;100483.69;5001553;28;20026;-72
2021/06/25 06:47:44;;;;;;;5.70;3.38;;;;;;;21.50;42.28;100492.97;5001307;28;20038;-71
2021/06/25 06:50:10;;;;;;;5.82;3.47;;;;;;;21.11;43.13;100500.25;5001518;28;20066;-72
2021/06/25 06:52:35;;;;;;;4.38;3.05;;;;;;;20.76;43.52;100488.75;5001558;28;20030;-71
2021/06/25 06:55:00;;;;;;;5.03;3.38;;;;;;;20.71;44.17;100493.41;5001059;28;20030;-72
2021/06/25 06:57:26;;;;;;;5.95;3.00;;;;;;;20.71;44.46;100493.41;4985046;28;20037;-71
2021/06/25 06:59:51;;;;;;;4.97;2.90;;;;;;;20.76;44.56;100495.81;5000725;28;20051;-71
2021/06/25 07:02:16;;;;;;;5.28;3.03;;;;;;;21.17;44.50;100490.22;4984369;28;20026;-71
2021/06/25 07:04:42;;;;;;;6.13;3.13;;;;;;;22.29;43.08;100493.97;5000991;28;20129;-71
2021/06/25 07:07:07;;;;;;;4.00;2.38;;;;;;;23.51;41.14;100492.22;5018226;28;20037;-71
2021/06/25 07:09:32;;;;;;;5.28;2.75;;;;;;;24.50;39.09;100497.53;5023800;28;20079;-70
2021/06/25 07:11:58;;;;;;;3.95;2.67;;;;;;;25.55;37.71;100506.47;5023533;28;20164;-69
2021/06/25 07:14:24;;;;;;;3.65;2.42;;;;;;;26.14;35.23;100506.75;5023353;28;20069;-70
2021/06/25 07:16:49;;;;;;;4.38;2.80;;;;;;;26.64;34.31;100505.81;5023557;28;20287;-69
2021/06/25 07:19:15;;;;;;;6.18;2.85;;;;;;;27.50;33.79;100504.66;5023442;28;20034;-69
2021/06/25 07:21:41;;;;;;;3.85;2.60;;;;;;;27.67;31.42;100495.34;5023490;28;20021;-70
2021/06/25 07:24:07;;;;;;;4.80;2.88;;;;;;;27.09;32.26;100507.75;5023521;28;20454;-70
2021/06/25 07:26:32;;;;;;;3.63;2.90;;;;;;;26.28;32.86;100505.75;5023435;28;20029;-70
2021/06/25 07:28:58;;;;;;;4.10;2.92;;;;;;;25.33;33.99;100518.59;5022015;28;20084;-71
2021/06/25 07:31:23;;;;;;;4.25;2.67;;;;;;;24.57;35.10;100519.19;5023427;28;20041;-72
2021/06/25 07:33:49;;;;;;;7.28;3.40;;;;;;;24.01;36.05;100523.59;5023394;28;20018;-72
2021/06/25 07:36:16;;;;;;;4.95;3.22;;;;;;;23.51;36.76;100517.88;5005484;28;20494;-72
2021/06/25 07:38:41;;;;;;;4.95;3.05;;;;;;;23.20;37.42;100525.84;5023407;28;20021;-71
2021/06/25 07:41:06;;;;;;;4.35;2.97;;;;;;;22.65;37.85;100520.25;5021894;28;20028;-72
2021/06/25 07:43:32;;;;;;;3.85;2.63;;;;;;;22.11;39.37;100510.88;5023321;28;20022;-72
2021/06/25 07:45:57;;;;;;;4.85;3.15;;;;;;;21.71;40.22;100521.81;5023130;28;20418;-62
2021/06/25 07:48:22;;;;;;;4.43;2.70;;;;;;;21.53;40.87;100535.91;5023750;28;20053;-64
2021/06/25 07:50:48;;;;;;;5.82;3.00;;;;;;;21.36;41.00;100535.97;5027213;28;20086;-61
2021/06/25 07:53:13;;;;;;;4.28;2.83;;;;;;;21.29;41.50;100530.97;5027028;28;20490;-61
2021/06/25 07:55:43;;;;;;;5.75;3.03;;;;;;;21.37;41.32;100535.88;5026923;28;20033;-63
2021/06/25 07:58:14;;;;;;;3.42;2.50;;;;;;;21.26;40.80;100533.78;5009277;28;20058;-73
2021/06/25 08:00:39;;;;;;;2.97;2.60;;;;;;;21.39;40.18;100525.22;5026645;28;20045;-69
2021/06/25 08:03:05;;;;;;;4.13;2.45;;;;;;;21.55;40.03;100536.69;5026596;28;20022;-72
2021/06/25 08:05:30;;;;;;;5.07;2.70;;;;;;;21.74;39.81;100521.66;5025430;28;20038;-69
2021/06/25 08:07:56;;;;;;;5.05;2.70;;;;;;;21.99;39.62;100523.84;5025717;28;20022;-69
2021/06/25 08:10:21;;;;;;;5.82;2.65;;;;;;;22.44;39.13;100524.94;5027016;28;20025;-71
2021/06/25 08:12:47;;;;;;;4.10;2.45;;;;;;;22.81;38.33;100527.28;5026787;28;20084;-71
2021/06/25 08:15:12;;;;;;;4.00;2.45;;;;;;;22.72;37.97;100500.41;5026737;28;20117;-71
2021/06/25 08:17:38;;;;;;;4.80;2.47;;;;;;;23.19;37.90;100529.47;5026425;28;20022;-69
2021/06/25 08:20:04;;;;;;;7.72;2.55;;;;;;;23.51;38.19;100534.59;5026412;28;20049;-73
2021/06/25 08:22:30;;;;;;;3.05;2.30;;;;;;;24.10;36.36;100530.13;5008815;28;20044;-62
2021/06/25 08:24:55;;;;;;;4.13;2.60;;;;;;;24.00;36.44;100534.31;5026400;28;20029;-69
2021/06/25 08:27:21;;;;;;;3.22;2.45;;;;;;;23.66;36.92;100539.91;5025103;28;20026;-72
2021/06/25 08:29:46;;;;;;;3.90;2.42;;;;;;;23.28;37.86;100542.16;5008536;28;20025;-70
2021/06/25 08:32:12;;;;;;;3.15;2.70;;;;;;;23.08;38.45;100540.69;5026016;28;20037;-64
2021/06/25 08:34:37;;;;;;;4.68;2.53;;;;;;;22.89;38.89;100535.63;5026257;28;20172;-62
2021/06/25 08:37:03;;;;;;;5.53;2.55;;;;;;;22.69;39.54;100540.28;5026245;28;20030;-70
2021/06/25 08:39:30;;;;;;;4.28;2.90;;;;;;;22.59;39.42;100539.09;5025870;28;20033;-67
2021/06/25 08:41:55;;;;;;;4.43;2.60;;;;;;;22.54;40.05;100534.91;5026354;28;20022;-72
2021/06/25 08:44:21;;;;;;;3.88;2.60;;;;;;;22.53;39.92;100542.91;5008301;28;20032;-61
2021/06/25 08:46:47;;;;;;;4.25;2.30;;;;;;;22.32;39.78;100529.97;5026214;28;20026;-78
2021/06/25 08:49:17;;;;;;;5.03;2.67;;;;;;;22.23;40.37;100528.72;5008058;28;20076;-70
2021/06/25 08:51:44;;;;;;;4.45;2.83;;;;;;;22.18;40.43;100538.69;5026312;28;20039;-72
2021/06/25 08:54:10;;;;;;;4.25;2.95;;;;;;;22.52;40.69;100550.00;5024549;28;20192;-79
2021/06/25 08:56:36;;;;;;;3.55;2.28;;;;;;;23.03;39.80;100540.94;5024562;28;20014;-74
2021/06/25 08:59:02;;;;;;;4.00;2.53;;;;;;;23.63;38.93;100548.06;5025337;28;20116;-70
2021/06/25 09:01:32;;;;;;;4.78;2.70;;;;;;;23.74;37.64;100527.03;5026230;28;20080;-71
2021/06/25 09:03:57;;;;;;;4.20;2.38;;;;;;;24.20;37.61;100535.72;5025795;28;20029;-73
2021/06/25 09:06:22;;;;;;;6.75;2.40;;;;;;;25.13;36.94;100538.56;5025695;28;20021;-62
2021/06/25 09:08:48;;;;;;;2.95;2.47;;;;;;;26.39;34.76;100517.47;5025794;28;20022;-63
2021/06/25 09:11:30;;;;;;;4.10;2.40;;;;;;;27.04;33.50;100522.41;5025705;28;20089;-64
2021/06/25 09:14:03;;;;;;;2.95;2.08;;;;;;;26.79;32.68;100524.28;5025543;28;20032;-66
2021/06/25 09:16:30;;;;;;;2.35;1.75;;;;;;;26.10;31.82;100534.56;5025099;28;20026;-63
2021/06/25 09:19:01;;;;;;;3.03;2.03;;;;;;;25.52;32.78;100540.38;5023843;28;20090;-69
2021/06/25 09:21:29;;;;;;;2.83;1.50;;;;;;;24.92;32.97;100536.41;5025329;28;20022;-65
2021/06/25 09:23:55;;;;;;;3.00;2.10;;;;;;;24.64;33.80;100540.88;5025072;28;20033;-63
2021/06/25 09:26:28;;;;;;;2.75;1.85;;;;;;;24.86;33.20;100539.44;5025143;28;20029;-62
2021/06/25 09:29:11;;;;;;;2.47;1.92;;;;;;;25.31;33.28;100540.91;5025229;28;20036;-61
2021/06/25 09:31:37;;;;;;;4.03;2.30;;;;;;;26.03;31.79;100541.28;5025263;28;20033;-65
2021/06/25 09:34:03;;;;;;;6.63;3.80;;;;;;;26.29;31.54;100528.75;5024905;28;20026;-63
2021/06/25 09:36:32;;;;;;;5.75;3.97;;;;;;;27.04;30.48;100531.28;5024973;28;20014;-62
2021/06/25 09:39:06;;;;;;;14.32;11.20;;;;;;;27.95;30.15;100530.47;5025117;28;20018;-64
2021/06/25 09:41:31;;;;;;;8.85;7.45;;;;;;;28.64;27.40;100530.28;5025154;28;20022;-62
2021/06/25 09:43:59;;;;;;;12.70;9.55;;;;;;;28.92;27.41;100537.78;5024664;28;20121;-67
2021/06/25 09:46:30;;;;;;;8.95;7.75;;;;;;;29.04;26.65;100544.78;5024653;28;20025;-68
2021/06/25 09:48:58;;;;;;;25.08;22.38;;;;;;;29.34;26.91;100538.75;5024571;28;20022;-66
2021/06/25 09:51:24;;;;;;;26.63;23.42;;;;;;;29.70;26.34;100531.19;5024969;28;20212;-66
2021/06/25 09:54:02;;;;;;;6.80;5.35;;;;;;;30.01;26.47;100524.94;5024537;28;20026;-66
2021/06/25 09:56:28;;;;;;;10.85;9.43;;;;;;;30.23;25.73;100529.22;5024475;28;20489;-63
2021/06/25 10:01:51;;;;;;;6.80;5.25;;;;;;;28.52;26.65;100517.94;5024968;28;20044;-66
2021/06/25 10:04:32;;;;;;;21.73;17.80;;;;;;;27.50;27.55;100519.78;5024198;28;20037;-63
2021/06/25 10:07:12;;;;;;;14.13;12.23;;;;;;;26.70;29.11;100534.66;5024529;28;20036;-62
2021/06/25 10:09:38;;;;;;;11.73;9.85;;;;;;;26.50;30.46;100524.63;5024488;28;20021;-66
2021/06/25 10:12:04;;;;;;;14.07;10.93;;;;;;;27.04;29.97;100525.94;5023861;28;20509;-65
2021/06/25 10:14:31;;;;;;;6.90;3.22;;;;;;;27.82;28.66;100525.28;5022963;28;20562;-62
2021/06/25 10:16:57;;;;;;;13.75;10.02;;;;;;;28.28;28.38;100524.31;5024497;28;20037;-61
2021/06/25 10:19:24;;;;;;;9.35;7.45;;;;;;;28.73;27.55;100527.81;5024135;28;20036;-64
2021/06/25 10:21:50;;;;;;;8.05;6.22;;;;;;;29.19;27.29;100529.25;5024270;28;20029;-64
2021/06/25 10:24:17;;;;;;;7.35;4.50;;;;;;;28.97;26.93;100537.41;5023010;28;20025;-64
2021/06/25 10:26:44;;;;;;;3.55;2.78;;;;;;;28.01;28.17;100538.94;5024131;28;20021;-66
2021/06/25 10:29:10;;;;;;;4.88;3.72;;;;;;;27.03;29.77;100550.03;5023996;28;20021;-64
2021/06/25 10:31:35;;;;;;;5.35;4.22;;;;;;;26.20;31.53;100553.38;5024077;28;20026;-63
2021/06/25 10:34:02;;;;;;;6.28;4.55;;;;;;;25.48;32.39;100556.53;5023853;28;20426;-62
2021/06/25 10:36:31;;;;;;;4.72;3.33;;;;;;;24.81;33.54;100550.38;5023853;28;20024;-62
2021/06/25 10:39:13;;;;;;;5.50;3.55;;;;;;;24.37;34.37;100563.81;5022535;28;20076;-62
2021/06/25 10:41:51;;;;;;;4.97;3.58;;;;;;;23.98;34.87;100555.63;5023889;28;20029;-62
2021/06/25 10:44:33;;;;;;;4.53;3.53;;;;;;;23.49;36.03;100557.72;5023809;28;20026;-62
2021/06/25 10:47:14;;;;;;;;;;;;;;;23.32;36.48;100560.50;5024319;28;20022;-62
2021/06/25 10:50:19;;;;;;;4.70;2.80;;;;;;;23.00;37.62;100562.31;5023902;28;19910;-61
2021/06/25 10:53:12;;;;;;;13.50;5.10;;;;;;;22.51;39.22;100569.47;5024095;28;20140;-61
2021/06/25 10:55:45;;;;;;;9.52;4.10;;;;;;;22.48;39.26;100571.41;5023540;28;20030;-64
2021/06/25 10:58:19;;;;;;;9.23;4.50;;;;;;;22.45;39.47;100571.59;5023933;28;20023;-64
2021/06/25 11:00:49;;;;;;;3.88;2.60;;;;;;;22.40;39.33;100574.50;5023248;28;20073;-65
2021/06/25 11:03:32;;;;;;;;;;;;;;;22.33;39.18;100578.44;5023945;28;20053;-64
2021/06/25 11:05:58;;;;;;;6.85;3.97;;;;;;;22.18;39.90;100575.69;5023228;28;19909;-64
2021/06/25 11:08:23;;;;;;;3.53;2.08;;;;;;;22.10;40.39;100581.41;5023483;28;20062;-65
2021/06/25 11:10:59;;;;;;;2.92;1.90;;;;;;;22.04;40.62;100579.94;5005660;28;20021;-67
2021/06/25 11:13:27;;;;;;;5.22;2.65;;;;;;;21.94;40.91;100588.44;5023572;28;20026;-63
2021/06/25 11:15:59;;;;;;;2.95;1.50;;;;;;;21.90;41.36;100591.25;5023063;28;20033;-62
2021/06/25 11:18:29;;;;;;;7.60;3.20;;;;;;;21.99;41.27;100584.63;5023133;28;20022;-65
2021/06/25 11:21:04;;;;;;;2.92;1.90;;;;;;;22.09;41.37;100586.78;5023615;28;20029;-64
2021/06/25 11:23:35;;;;;;;3.38;2.10;;;;;;;22.10;41.13;100583.19;5025808;28;20085;-66
2021/06/25 11:26:02;;;;;;;3.78;2.05;;;;;;;22.20;40.89;100587.03;5027538;28;20021;-66
2021/06/25 11:28:31;;;;;;;5.68;2.22;;;;;;;22.26;40.38;100588.50;5027451;28;20034;-66
2021/06/25 11:31:03;;;;;;;5.25;2.15;;;;;;;22.28;40.64;100584.81;5027300;28;20045;-64
2021/06/25 11:33:40;;;;;;;4.40;1.80;;;;;;;22.24;40.56;100585.06;5009525;28;20049;-62
2021/06/25 11:36:15;;;;;;;4.47;2.70;;;;;;;22.22;40.73;100587.78;5027304;28;20037;-62
2021/06/25 11:39:01;;;;;;;2.55;1.70;;;;;;;22.21;40.59;100590.53;5027280;28;20525;-63